sensor_id;sensor_type;location;lat;lon;timestamp;P1;durP1;ratioP1;P2;durP2;ratioP2
39102;SDS011;24847;48.218;16.414;2022-12-29T00:00:36;11.20;;;7.68;;
39102;SDS011;24847;48.218;16.414;2022-12-29T00:05:39;12.38;;;8.73;;
39102;SDS011;24847;48.218;16.414;2022-12-29T00:10:43;11.05;;;8.60;;
39102;SDS011;24847;48.218;16.414;2022-12-29T00:15:45;12.98;;;8.00;;
39102;SDS011;24847;48.218;16.414;2022-12-29T00:20:49;10.75;;;7.93;;
39102;SDS011;24847;48.218;16.414;2022-12-29T00:26:11;11.15;;;8.45;;
39102;SDS011;24847;48.218;16.414;2022-12-29T00:31:35;10.73;;;7.88;;
39102;SDS011;24847;48.218;16.414;2022-12-29T00:36:54;12.57;;;8.00;;
39102;SDS011;24847;48.218;16.414;2022-12-29T00:42:03;12.80;;;7.20;;
39102;SDS011;24847;48.218;16.414;2022-12-29T00:47:35;8.38;;;6.85;;
39102;SDS011;24847;48.218;16.414;2022-12-29T00:52:37;10.18;;;7.00;;
39102;SDS011;24847;48.218;16.414;2022-12-29T00:57:41;10.75;;;7.20;;
39102;SDS011;24847;48.218;16.414;2022-12-29T01:02:43;10.65;;;7.30;;
39102;SDS011;24847;48.218;16.414;2022-12-29T01:07:45;9.02;;;6.72;;
39102;SDS011;24847;48.218;16.414;2022-12-29T01:12:49;10.07;;;7.07;;
39102;SDS011;24847;48.218;16.414;2022-12-29T01:17:51;10.23;;;7.50;;
39102;SDS011;24847;48.218;16.414;2022-12-29T01:22:53;10.55;;;7.45;;
39102;SDS011;24847;48.218;16.414;2022-12-29T01:27:57;10.10;;;7.18;;
39102;SDS011;24847;48.218;16.414;2022-12-29T01:32:59;10.70;;;7.35;;
39102;SDS011;24847;48.218;16.414;2022-12-29T01:38:02;9.43;;;6.53;;
39102;SDS011;24847;48.218;16.414;2022-12-29T01:43:07;10.30;;;7.10;;
39102;SDS011;24847;48.218;16.414;2022-12-29T01:48:11;10.93;;;7.00;;
39102;SDS011;24847;48.218;16.414;2022-12-29T01:53:15;9.35;;;7.03;;
39102;SDS011;24847;48.218;16.414;2022-12-29T01:58:24;8.90;;;6.03;;
39102;SDS011;24847;48.218;16.414;2022-12-29T02:03:32;8.15;;;6.63;;
39102;SDS011;24847;48.218;16.414;2022-12-29T02:08:35;9.32;;;6.38;;
39102;SDS011;24847;48.218;16.414;2022-12-29T02:13:41;9.13;;;6.55;;
39102;SDS011;24847;48.218;16.414;2022-12-29T02:18:44;8.32;;;6.30;;
39102;SDS011;24847;48.218;16.414;2022-12-29T02:29:52;7.65;;;6.22;;
39102;SDS011;24847;48.218;16.414;2022-12-29T02:35:09;8.15;;;6.05;;
39102;SDS011;24847;48.218;16.414;2022-12-29T02:40:26;8.05;;;5.93;;
39102;SDS011;24847;48.218;16.414;2022-12-29T02:45:43;9.60;;;5.93;;
39102;SDS011;24847;48.218;16.414;2022-12-29T02:50:57;8.57;;;6.25;;
39102;SDS011;24847;48.218;16.414;2022-12-29T02:56:03;9.40;;;6.32;;
39102;SDS011;24847;48.218;16.414;2022-12-29T03:01:19;7.43;;;5.75;;
39102;SDS011;24847;48.218;16.414;2022-12-29T03:06:35;8.93;;;6.03;;
39102;SDS011;24847;48.218;16.414;2022-12-29T03:11:54;8.00;;;6.00;;
39102;SDS011;24847;48.218;16.414;2022-12-29T03:17:14;9.55;;;6.30;;
39102;SDS011;24847;48.218;16.414;2022-12-29T03:22:27;8.23;;;6.03;;
39102;SDS011;24847;48.218;16.414;2022-12-29T03:27:35;9.73;;;6.05;;
39102;SDS011;24847;48.218;16.414;2022-12-29T03:32:45;8.23;;;5.95;;
39102;SDS011;24847;48.218;16.414;2022-12-29T03:37:54;8.52;;;6.18;;
39102;SDS011;24847;48.218;16.414;2022-12-29T03:43:01;9.52;;;5.82;;
39102;SDS011;24847;48.218;16.414;2022-12-29T03:48:04;9.65;;;6.13;;
39102;SDS011;24847;48.218;16.414;2022-12-29T03:53:08;7.95;;;5.95;;
39102;SDS011;24847;48.218;16.414;2022-12-29T03:58:10;7.90;;;5.68;;
39102;SDS011;24847;48.218;16.414;2022-12-29T04:03:12;8.07;;;6.18;;
39102;SDS011;24847;48.218;16.414;2022-12-29T04:08:16;9.07;;;5.75;;
39102;SDS011;24847;48.218;16.414;2022-12-29T04:13:18;9.80;;;6.45;;
39102;SDS011;24847;48.218;16.414;2022-12-29T04:18:21;10.65;;;6.65;;
39102;SDS011;24847;48.218;16.414;2022-12-29T04:23:24;15.25;;;9.77;;
39102;SDS011;24847;48.218;16.414;2022-12-29T04:28:27;22.98;;;13.50;;
39102;SDS011;24847;48.218;16.414;2022-12-29T04:33:29;24.45;;;15.38;;
39102;SDS011;24847;48.218;16.414;2022-12-29T04:38:33;11.15;;;8.15;;
39102;SDS011;24847;48.218;16.414;2022-12-29T04:43:35;10.63;;;7.30;;
39102;SDS011;24847;48.218;16.414;2022-12-29T04:48:38;10.27;;;6.80;;
39102;SDS011;24847;48.218;16.414;2022-12-29T04:53:41;8.75;;;6.63;;
39102;SDS011;24847;48.218;16.414;2022-12-29T04:58:43;8.63;;;6.03;;
39102;SDS011;24847;48.218;16.414;2022-12-29T05:03:45;8.60;;;6.47;;
39102;SDS011;24847;48.218;16.414;2022-12-29T05:08:49;7.57;;;5.75;;
39102;SDS011;24847;48.218;16.414;2022-12-29T05:13:51;9.13;;;6.60;;
39102;SDS011;24847;48.218;16.414;2022-12-29T05:18:54;10.73;;;6.72;;
39102;SDS011;24847;48.218;16.414;2022-12-29T05:23:57;8.35;;;5.90;;
39102;SDS011;24847;48.218;16.414;2022-12-29T05:29:00;8.95;;;6.85;;
39102;SDS011;24847;48.218;16.414;2022-12-29T05:34:02;8.80;;;6.75;;
39102;SDS011;24847;48.218;16.414;2022-12-29T05:39:06;12.50;;;7.85;;
39102;SDS011;24847;48.218;16.414;2022-12-29T05:44:09;7.85;;;6.25;;
39102;SDS011;24847;48.218;16.414;2022-12-29T05:49:12;9.43;;;6.57;;
39102;SDS011;24847;48.218;16.414;2022-12-29T05:54:15;11.02;;;7.65;;
39102;SDS011;24847;48.218;16.414;2022-12-29T05:59:18;8.82;;;6.85;;
39102;SDS011;24847;48.218;16.414;2022-12-29T06:04:20;11.25;;;8.05;;
39102;SDS011;24847;48.218;16.414;2022-12-29T06:09:24;13.07;;;7.82;;
39102;SDS011;24847;48.218;16.414;2022-12-29T06:14:26;10.02;;;8.02;;
39102;SDS011;24847;48.218;16.414;2022-12-29T06:19:28;11.55;;;8.80;;
39102;SDS011;24847;48.218;16.414;2022-12-29T06:24:31;13.73;;;9.52;;
39102;SDS011;24847;48.218;16.414;2022-12-29T06:29:34;13.07;;;9.48;;
39102;SDS011;24847;48.218;16.414;2022-12-29T06:34:37;12.45;;;9.60;;
39102;SDS011;24847;48.218;16.414;2022-12-29T06:39:40;16.20;;;10.77;;
39102;SDS011;24847;48.218;16.414;2022-12-29T06:44:43;14.70;;;10.85;;
39102;SDS011;24847;48.218;16.414;2022-12-29T06:49:45;19.10;;;11.50;;
39102;SDS011;24847;48.218;16.414;2022-12-29T06:54:49;16.38;;;11.10;;
39102;SDS011;24847;48.218;16.414;2022-12-29T06:59:51;15.38;;;10.20;;
39102;SDS011;24847;48.218;16.414;2022-12-29T07:04:55;16.55;;;10.70;;
39102;SDS011;24847;48.218;16.414;2022-12-29T07:09:59;16.73;;;11.35;;
39102;SDS011;24847;48.218;16.414;2022-12-29T07:15:01;16.00;;;10.60;;
39102;SDS011;24847;48.218;16.414;2022-12-29T07:20:04;20.20;;;11.98;;
39102;SDS011;24847;48.218;16.414;2022-12-29T07:25:09;20.15;;;12.20;;
39102;SDS011;24847;48.218;16.414;2022-12-29T07:30:12;20.27;;;13.13;;
39102;SDS011;24847;48.218;16.414;2022-12-29T07:35:14;18.75;;;12.60;;
39102;SDS011;24847;48.218;16.414;2022-12-29T07:40:18;18.23;;;11.95;;
39102;SDS011;24847;48.218;16.414;2022-12-29T07:45:20;20.10;;;11.65;;
39102;SDS011;24847;48.218;16.414;2022-12-29T07:50:22;18.35;;;11.95;;
39102;SDS011;24847;48.218;16.414;2022-12-29T07:55:26;18.80;;;12.57;;
39102;SDS011;24847;48.218;16.414;2022-12-29T08:00:29;16.00;;;10.90;;
39102;SDS011;24847;48.218;16.414;2022-12-29T08:05:31;21.38;;;12.50;;
39102;SDS011;24847;48.218;16.414;2022-12-29T08:10:36;22.25;;;13.80;;
39102;SDS011;24847;48.218;16.414;2022-12-29T08:15:38;18.95;;;13.10;;
39102;SDS011;24847;48.218;16.414;2022-12-29T08:20:40;20.65;;;13.50;;
39102;SDS011;24847;48.218;16.414;2022-12-29T08:25:44;21.50;;;13.25;;
39102;SDS011;24847;48.218;16.414;2022-12-29T08:30:47;22.35;;;13.77;;
39102;SDS011;24847;48.218;16.414;2022-12-29T08:35:49;20.42;;;13.07;;
39102;SDS011;24847;48.218;16.414;2022-12-29T08:40:53;25.20;;;14.85;;
39102;SDS011;24847;48.218;16.414;2022-12-29T08:45:55;19.55;;;13.27;;
39102;SDS011;24847;48.218;16.414;2022-12-29T08:50:59;20.48;;;12.75;;
39102;SDS011;24847;48.218;16.414;2022-12-29T08:56:02;20.15;;;12.43;;
39102;SDS011;24847;48.218;16.414;2022-12-29T09:01:05;20.23;;;12.82;;
39102;SDS011;24847;48.218;16.414;2022-12-29T09:06:08;20.60;;;13.70;;
39102;SDS011;24847;48.218;16.414;2022-12-29T09:11:12;20.48;;;12.55;;
39102;SDS011;24847;48.218;16.414;2022-12-29T09:16:18;20.30;;;12.63;;
39102;SDS011;24847;48.218;16.414;2022-12-29T09:21:21;21.33;;;12.93;;
39102;SDS011;24847;48.218;16.414;2022-12-29T09:26:25;23.45;;;14.32;;
39102;SDS011;24847;48.218;16.414;2022-12-29T09:31:27;23.20;;;14.18;;
39102;SDS011;24847;48.218;16.414;2022-12-29T09:36:29;27.85;;;15.10;;
39102;SDS011;24847;48.218;16.414;2022-12-29T09:41:34;24.05;;;15.07;;
39102;SDS011;24847;48.218;16.414;2022-12-29T09:46:43;27.88;;;14.48;;
39102;SDS011;24847;48.218;16.414;2022-12-29T09:51:50;25.95;;;14.10;;
39102;SDS011;24847;48.218;16.414;2022-12-29T09:56:56;25.38;;;14.57;;
39102;SDS011;24847;48.218;16.414;2022-12-29T10:02:00;22.15;;;13.52;;
39102;SDS011;24847;48.218;16.414;2022-12-29T10:07:15;24.20;;;14.57;;
39102;SDS011;24847;48.218;16.414;2022-12-29T10:12:32;22.63;;;14.10;;
39102;SDS011;24847;48.218;16.414;2022-12-29T10:23:10;26.98;;;15.07;;
39102;SDS011;24847;48.218;16.414;2022-12-29T10:28:31;22.20;;;15.07;;
39102;SDS011;24847;48.218;16.414;2022-12-29T10:33:39;24.80;;;15.30;;
39102;SDS011;24847;48.218;16.414;2022-12-29T10:38:45;26.88;;;16.42;;
39102;SDS011;24847;48.218;16.414;2022-12-29T10:44:00;21.73;;;14.73;;
39102;SDS011;24847;48.218;16.414;2022-12-29T10:49:03;28.58;;;17.23;;
39102;SDS011;24847;48.218;16.414;2022-12-29T10:54:08;25.88;;;16.38;;
39102;SDS011;24847;48.218;16.414;2022-12-29T10:59:19;26.50;;;16.10;;
39102;SDS011;24847;48.218;16.414;2022-12-29T11:04:33;26.00;;;16.48;;
39102;SDS011;24847;48.218;16.414;2022-12-29T11:09:45;25.15;;;15.75;;
39102;SDS011;24847;48.218;16.414;2022-12-29T11:14:52;26.08;;;15.82;;
39102;SDS011;24847;48.218;16.414;2022-12-29T11:20:26;27.65;;;17.70;;
39102;SDS011;24847;48.218;16.414;2022-12-29T11:25:32;26.23;;;17.90;;
39102;SDS011;24847;48.218;16.414;2022-12-29T11:30:38;27.20;;;17.42;;
39102;SDS011;24847;48.218;16.414;2022-12-29T11:35:42;25.52;;;16.20;;
39102;SDS011;24847;48.218;16.414;2022-12-29T11:40:45;31.20;;;18.08;;
39102;SDS011;24847;48.218;16.414;2022-12-29T11:45:49;29.48;;;17.35;;
39102;SDS011;24847;48.218;16.414;2022-12-29T11:50:59;28.67;;;17.13;;
39102;SDS011;24847;48.218;16.414;2022-12-29T11:56:02;24.73;;;17.30;;
39102;SDS011;24847;48.218;16.414;2022-12-29T12:01:13;26.38;;;17.48;;
39102;SDS011;24847;48.218;16.414;2022-12-29T12:06:19;25.98;;;17.13;;
39102;SDS011;24847;48.218;16.414;2022-12-29T12:11:25;24.83;;;16.27;;
39102;SDS011;24847;48.218;16.414;2022-12-29T12:16:39;28.50;;;17.95;;
39102;SDS011;24847;48.218;16.414;2022-12-29T12:21:45;26.70;;;17.58;;
39102;SDS011;24847;48.218;16.414;2022-12-29T12:26:55;27.05;;;16.77;;
39102;SDS011;24847;48.218;16.414;2022-12-29T12:32:04;26.20;;;17.23;;
39102;SDS011;24847;48.218;16.414;2022-12-29T12:37:21;25.73;;;17.58;;
39102;SDS011;24847;48.218;16.414;2022-12-29T12:42:46;26.95;;;16.98;;
39102;SDS011;24847;48.218;16.414;2022-12-29T12:48:04;26.83;;;16.98;;
39102;SDS011;24847;48.218;16.414;2022-12-29T12:53:34;26.25;;;16.48;;
39102;SDS011;24847;48.218;16.414;2022-12-29T12:58:55;23.88;;;15.80;;
39102;SDS011;24847;48.218;16.414;2022-12-29T13:04:15;24.42;;;16.08;;
39102;SDS011;24847;48.218;16.414;2022-12-29T13:09:45;24.13;;;16.35;;
39102;SDS011;24847;48.218;16.414;2022-12-29T13:15:03;23.80;;;16.10;;
39102;SDS011;24847;48.218;16.414;2022-12-29T13:20:23;25.60;;;16.38;;
39102;SDS011;24847;48.218;16.414;2022-12-29T13:25:33;25.65;;;16.35;;
39102;SDS011;24847;48.218;16.414;2022-12-29T13:30:45;27.20;;;16.75;;
39102;SDS011;24847;48.218;16.414;2022-12-29T13:36:02;25.52;;;16.92;;
39102;SDS011;24847;48.218;16.414;2022-12-29T13:41:10;27.35;;;17.50;;
39102;SDS011;24847;48.218;16.414;2022-12-29T13:46:18;22.65;;;16.23;;
39102;SDS011;24847;48.218;16.414;2022-12-29T13:51:27;26.20;;;17.73;;
39102;SDS011;24847;48.218;16.414;2022-12-29T13:56:31;23.52;;;16.23;;
39102;SDS011;24847;48.218;16.414;2022-12-29T14:01:42;23.27;;;16.45;;
39102;SDS011;24847;48.218;16.414;2022-12-29T14:07:03;25.33;;;16.67;;
39102;SDS011;24847;48.218;16.414;2022-12-29T14:17:33;25.45;;;17.33;;
39102;SDS011;24847;48.218;16.414;2022-12-29T14:22:37;24.10;;;16.45;;
39102;SDS011;24847;48.218;16.414;2022-12-29T14:27:59;25.30;;;16.20;;
39102;SDS011;24847;48.218;16.414;2022-12-29T14:33:24;25.60;;;16.05;;
39102;SDS011;24847;48.218;16.414;2022-12-29T14:38:31;23.27;;;16.40;;
39102;SDS011;24847;48.218;16.414;2022-12-29T14:43:33;21.88;;;15.43;;
39102;SDS011;24847;48.218;16.414;2022-12-29T14:48:37;22.55;;;15.85;;
39102;SDS011;24847;48.218;16.414;2022-12-29T14:53:46;22.50;;;15.05;;
39102;SDS011;24847;48.218;16.414;2022-12-29T14:58:51;25.05;;;16.08;;
39102;SDS011;24847;48.218;16.414;2022-12-29T15:03:57;23.02;;;15.68;;
39102;SDS011;24847;48.218;16.414;2022-12-29T15:09:09;21.67;;;15.10;;
39102;SDS011;24847;48.218;16.414;2022-12-29T15:14:34;23.17;;;14.45;;
39102;SDS011;24847;48.218;16.414;2022-12-29T15:19:38;20.75;;;14.30;;
39102;SDS011;24847;48.218;16.414;2022-12-29T15:24:42;21.33;;;14.90;;
39102;SDS011;24847;48.218;16.414;2022-12-29T15:29:45;21.23;;;14.60;;
39102;SDS011;24847;48.218;16.414;2022-12-29T15:34:49;22.17;;;15.10;;
39102;SDS011;24847;48.218;16.414;2022-12-29T15:39:55;25.70;;;15.93;;
39102;SDS011;24847;48.218;16.414;2022-12-29T15:44:57;22.95;;;15.00;;
39102;SDS011;24847;48.218;16.414;2022-12-29T15:50:02;21.20;;;14.27;;
39102;SDS011;24847;48.218;16.414;2022-12-29T15:55:11;23.63;;;16.35;;
39102;SDS011;24847;48.218;16.414;2022-12-29T16:00:23;23.02;;;15.90;;
39102;SDS011;24847;48.218;16.414;2022-12-29T16:05:32;34.15;;;21.27;;
39102;SDS011;24847;48.218;16.414;2022-12-29T16:10:39;28.23;;;17.85;;
39102;SDS011;24847;48.218;16.414;2022-12-29T16:15:44;25.48;;;17.27;;
39102;SDS011;24847;48.218;16.414;2022-12-29T16:20:48;25.00;;;16.00;;
39102;SDS011;24847;48.218;16.414;2022-12-29T16:25:52;26.33;;;16.90;;
39102;SDS011;24847;48.218;16.414;2022-12-29T16:30:58;24.67;;;16.63;;
39102;SDS011;24847;48.218;16.414;2022-12-29T16:41:30;25.52;;;17.10;;
39102;SDS011;24847;48.218;16.414;2022-12-29T16:46:33;28.25;;;16.73;;
39102;SDS011;24847;48.218;16.414;2022-12-29T16:51:36;25.67;;;16.50;;
39102;SDS011;24847;48.218;16.414;2022-12-29T16:56:42;25.35;;;16.63;;
39102;SDS011;24847;48.218;16.414;2022-12-29T17:01:46;23.92;;;16.45;;
39102;SDS011;24847;48.218;16.414;2022-12-29T17:06:48;24.83;;;16.45;;
39102;SDS011;24847;48.218;16.414;2022-12-29T17:11:52;21.38;;;14.85;;
39102;SDS011;24847;48.218;16.414;2022-12-29T17:16:58;25.15;;;17.45;;
39102;SDS011;24847;48.218;16.414;2022-12-29T17:22:01;31.80;;;20.95;;
39102;SDS011;24847;48.218;16.414;2022-12-29T17:27:05;24.08;;;16.35;;
39102;SDS011;24847;48.218;16.414;2022-12-29T17:32:09;20.38;;;14.18;;
39102;SDS011;24847;48.218;16.414;2022-12-29T17:42:40;18.80;;;13.27;;
39102;SDS011;24847;48.218;16.414;2022-12-29T17:47:44;19.50;;;14.18;;
39102;SDS011;24847;48.218;16.414;2022-12-29T17:52:49;18.63;;;13.70;;
39102;SDS011;24847;48.218;16.414;2022-12-29T17:57:55;18.67;;;13.75;;
39102;SDS011;24847;48.218;16.414;2022-12-29T18:02:57;21.38;;;14.38;;
39102;SDS011;24847;48.218;16.414;2022-12-29T18:08:00;21.17;;;13.98;;
39102;SDS011;24847;48.218;16.414;2022-12-29T18:13:04;20.20;;;13.75;;
39102;SDS011;24847;48.218;16.414;2022-12-29T18:18:09;78.03;;;48.05;;
39102;SDS011;24847;48.218;16.414;2022-12-29T18:23:15;36.60;;;23.42;;
39102;SDS011;24847;48.218;16.414;2022-12-29T18:28:23;22.63;;;15.95;;
39102;SDS011;24847;48.218;16.414;2022-12-29T18:33:25;21.35;;;15.02;;
39102;SDS011;24847;48.218;16.414;2022-12-29T18:38:28;22.52;;;14.20;;
39102;SDS011;24847;48.218;16.414;2022-12-29T18:43:32;30.17;;;21.23;;
39102;SDS011;24847;48.218;16.414;2022-12-29T18:48:38;21.27;;;14.43;;
39102;SDS011;24847;48.218;16.414;2022-12-29T18:53:40;19.55;;;14.25;;
39102;SDS011;24847;48.218;16.414;2022-12-29T18:58:44;19.33;;;14.60;;
39102;SDS011;24847;48.218;16.414;2022-12-29T19:03:47;28.77;;;20.15;;
39102;SDS011;24847;48.218;16.414;2022-12-29T19:08:50;24.25;;;16.42;;
39102;SDS011;24847;48.218;16.414;2022-12-29T19:13:54;21.10;;;14.85;;
39102;SDS011;24847;48.218;16.414;2022-12-29T19:18:57;20.55;;;14.38;;
39102;SDS011;24847;48.218;16.414;2022-12-29T19:24:00;19.38;;;13.95;;
39102;SDS011;24847;48.218;16.414;2022-12-29T19:29:04;17.35;;;12.63;;
39102;SDS011;24847;48.218;16.414;2022-12-29T19:34:11;18.92;;;13.63;;
39102;SDS011;24847;48.218;16.414;2022-12-29T19:39:15;20.25;;;14.23;;
39102;SDS011;24847;48.218;16.414;2022-12-29T19:44:19;18.35;;;13.70;;
39102;SDS011;24847;48.218;16.414;2022-12-29T19:49:21;18.65;;;13.30;;
39102;SDS011;24847;48.218;16.414;2022-12-29T19:54:24;18.20;;;13.60;;
39102;SDS011;24847;48.218;16.414;2022-12-29T19:59:28;18.85;;;14.00;;
39102;SDS011;24847;48.218;16.414;2022-12-29T20:04:30;21.88;;;14.82;;
39102;SDS011;24847;48.218;16.414;2022-12-29T20:09:33;21.60;;;14.82;;
39102;SDS011;24847;48.218;16.414;2022-12-29T20:14:37;21.63;;;14.93;;
39102;SDS011;24847;48.218;16.414;2022-12-29T20:19:41;19.88;;;14.32;;
39102;SDS011;24847;48.218;16.414;2022-12-29T20:24:44;20.42;;;14.93;;
39102;SDS011;24847;48.218;16.414;2022-12-29T20:29:48;50.58;;;28.13;;
39102;SDS011;24847;48.218;16.414;2022-12-29T20:34:51;21.90;;;15.93;;
39102;SDS011;24847;48.218;16.414;2022-12-29T20:39:54;28.90;;;19.10;;
39102;SDS011;24847;48.218;16.414;2022-12-29T20:44:58;23.88;;;15.65;;
39102;SDS011;24847;48.218;16.414;2022-12-29T20:50:01;20.92;;;14.82;;
39102;SDS011;24847;48.218;16.414;2022-12-29T20:55:04;23.20;;;15.40;;
39102;SDS011;24847;48.218;16.414;2022-12-29T21:00:09;19.88;;;15.32;;
39102;SDS011;24847;48.218;16.414;2022-12-29T21:05:13;19.35;;;14.40;;
39102;SDS011;24847;48.218;16.414;2022-12-29T21:10:15;18.10;;;13.55;;
39102;SDS011;24847;48.218;16.414;2022-12-29T21:15:19;26.02;;;18.55;;
39102;SDS011;24847;48.218;16.414;2022-12-29T21:20:21;20.38;;;14.90;;
39102;SDS011;24847;48.218;16.414;2022-12-29T21:25:31;21.63;;;15.02;;
39102;SDS011;24847;48.218;16.414;2022-12-29T21:30:38;20.20;;;15.93;;
39102;SDS011;24847;48.218;16.414;2022-12-29T21:35:41;30.25;;;20.77;;
39102;SDS011;24847;48.218;16.414;2022-12-29T21:40:44;24.65;;;16.27;;
39102;SDS011;24847;48.218;16.414;2022-12-29T21:45:49;23.63;;;16.65;;
39102;SDS011;24847;48.218;16.414;2022-12-29T21:50:52;22.08;;;16.13;;
39102;SDS011;24847;48.218;16.414;2022-12-29T21:56:16;19.15;;;14.82;;
39102;SDS011;24847;48.218;16.414;2022-12-29T22:01:21;21.70;;;15.75;;
39102;SDS011;24847;48.218;16.414;2022-12-29T22:06:42;21.15;;;15.25;;
39102;SDS011;24847;48.218;16.414;2022-12-29T22:12:02;21.77;;;15.52;;
39102;SDS011;24847;48.218;16.414;2022-12-29T22:17:23;23.83;;;16.30;;
39102;SDS011;24847;48.218;16.414;2022-12-29T22:22:26;20.50;;;14.52;;
39102;SDS011;24847;48.218;16.414;2022-12-29T22:27:28;21.25;;;15.77;;
39102;SDS011;24847;48.218;16.414;2022-12-29T22:32:32;22.05;;;15.68;;
39102;SDS011;24847;48.218;16.414;2022-12-29T22:37:35;21.83;;;15.60;;
39102;SDS011;24847;48.218;16.414;2022-12-29T22:42:39;23.38;;;16.58;;
39102;SDS011;24847;48.218;16.414;2022-12-29T22:47:42;22.63;;;17.08;;
39102;SDS011;24847;48.218;16.414;2022-12-29T22:52:44;29.85;;;21.30;;
39102;SDS011;24847;48.218;16.414;2022-12-29T22:57:47;28.15;;;19.67;;
39102;SDS011;24847;48.218;16.414;2022-12-29T23:02:50;23.70;;;17.23;;
39102;SDS011;24847;48.218;16.414;2022-12-29T23:07:52;24.15;;;17.10;;
39102;SDS011;24847;48.218;16.414;2022-12-29T23:12:55;24.05;;;17.00;;
39102;SDS011;24847;48.218;16.414;2022-12-29T23:17:58;22.75;;;17.08;;
39102;SDS011;24847;48.218;16.414;2022-12-29T23:23:01;24.90;;;16.63;;
39102;SDS011;24847;48.218;16.414;2022-12-29T23:28:04;25.30;;;17.50;;
39102;SDS011;24847;48.218;16.414;2022-12-29T23:33:10;25.65;;;17.75;;
39102;SDS011;24847;48.218;16.414;2022-12-29T23:38:12;25.55;;;18.20;;
39102;SDS011;24847;48.218;16.414;2022-12-29T23:43:14;27.92;;;18.73;;
39102;SDS011;24847;48.218;16.414;2022-12-29T23:48:18;23.50;;;17.52;;
39102;SDS011;24847;48.218;16.414;2022-12-29T23:53:21;23.25;;;17.55;;
39102;SDS011;24847;48.218;16.414;2022-12-29T23:58:23;26.00;;;18.48;;
